createdAt,value
2023-05-05T00:01:43.502Z,77.02
2023-05-05T00:04:17.700Z,77.36
2023-05-05T00:06:50.528Z,77.07
2023-05-05T00:09:23.502Z,76.78
2023-05-05T00:11:56.641Z,76.94
2023-05-05T00:14:30.805Z,76.44
2023-05-05T00:17:04.259Z,76.55
2023-05-05T00:19:37.048Z,76.16
2023-05-05T00:22:09.788Z,76.35
2023-05-05T00:24:42.961Z,76.15
2023-05-05T00:27:15.777Z,76.33
2023-05-05T00:29:49.816Z,75.95
2023-05-05T00:32:22.590Z,76.02
2023-05-05T00:34:55.444Z,76.62
2023-05-05T00:37:28.353Z,76.07
2023-05-05T00:40:01.193Z,76.30
2023-05-05T00:42:39.411Z,76.29
2023-05-05T00:45:14.728Z,76.47
2023-05-05T00:47:48.990Z,76.68
2023-05-05T00:50:23.967Z,76.86
2023-05-05T00:52:58.169Z,76.48
2023-05-05T00:55:31.713Z,76.89
2023-05-05T00:58:05.445Z,76.86
2023-05-05T01:00:39.949Z,76.72
2023-05-05T01:03:15.447Z,76.89
2023-05-05T01:05:53.194Z,76.56
2023-05-05T01:08:33.655Z,76.87
2023-05-05T01:11:12.732Z,76.69
2023-05-05T01:13:49.716Z,76.41
2023-05-05T01:16:26.330Z,76.62
2023-05-05T01:19:02.121Z,76.80
2023-05-05T01:21:37.241Z,76.93
2023-05-05T01:24:37.331Z,76.57
2023-05-05T01:27:28.443Z,76.83
2023-05-05T01:30:11.798Z,76.59
2023-05-05T01:32:49.085Z,76.92
2023-05-05T01:35:27.056Z,76.66
2023-05-05T01:38:01.810Z,76.89
2023-05-05T01:40:37.896Z,77.15
2023-05-05T01:43:11.616Z,77.30
2023-05-05T01:45:46.305Z,77.37
2023-05-05T01:48:21.643Z,77.56
2023-05-05T01:50:54.537Z,77.37
2023-05-05T01:53:28.444Z,77.21
2023-05-05T01:56:03.119Z,77.19
2023-05-05T01:58:36.261Z,76.86
2023-05-05T02:01:10.486Z,77.08
2023-05-05T02:03:47.247Z,76.87
2023-05-05T02:06:20.705Z,76.65
2023-05-05T02:08:54.159Z,77.01
2023-05-05T02:11:28.356Z,77.03
2023-05-05T02:14:02.352Z,77.06
2023-05-05T02:16:35.362Z,76.76
2023-05-05T02:19:09.906Z,77.00
2023-05-05T02:21:43.274Z,76.53
2023-05-05T02:24:16.431Z,77.07
2023-05-05T02:26:51.409Z,76.95
2023-05-05T02:29:29.650Z,77.24
2023-05-05T02:32:04.926Z,77.26
2023-05-05T02:34:40.988Z,77.19
2023-05-05T02:37:15.444Z,76.93
2023-05-05T02:39:51.657Z,77.29
2023-05-05T02:42:25.181Z,77.22
2023-05-05T02:44:59.895Z,77.26
2023-05-05T02:47:36.451Z,77.16
2023-05-05T02:50:12.352Z,76.86
2023-05-05T02:52:45.961Z,76.89
2023-05-05T02:55:18.706Z,76.88
2023-05-05T02:57:54.956Z,77.05
2023-05-05T03:00:33.813Z,77.12
2023-05-05T03:03:14.130Z,77.25
2023-05-05T03:05:52.474Z,77.61
2023-05-05T03:08:29.329Z,77.30
2023-05-05T03:11:06.030Z,77.27
2023-05-05T03:13:42.969Z,77.67
2023-05-05T03:16:17.688Z,77.46
2023-05-05T03:18:53.372Z,78.02
2023-05-05T03:21:27.717Z,78.08
2023-05-05T03:24:01.172Z,78.53
2023-05-05T03:26:34.228Z,78.53
2023-05-05T03:29:07.001Z,78.30
2023-05-05T03:31:40.100Z,78.72
2023-05-05T03:34:12.917Z,78.65
2023-05-05T03:36:47.001Z,78.69
2023-05-05T03:39:19.931Z,78.63
2023-05-05T03:41:52.738Z,79.03
2023-05-05T03:44:25.469Z,78.83
2023-05-05T03:46:58.116Z,78.71
2023-05-05T03:49:30.880Z,78.85
2023-05-05T03:52:05.026Z,78.74
2023-05-05T03:54:38.048Z,79.13
2023-05-05T03:57:11.896Z,79.04
2023-05-05T03:59:44.651Z,78.69
2023-05-05T04:02:18.782Z,78.79
2023-05-05T04:04:51.879Z,78.65
2023-05-05T04:07:26.231Z,78.27
2023-05-05T04:09:58.990Z,78.27
2023-05-05T04:12:31.750Z,78.09
2023-05-05T04:15:04.686Z,78.18
2023-05-05T04:17:37.516Z,77.83
2023-05-05T04:20:11.229Z,77.67
2023-05-05T04:22:45.990Z,77.51
2023-05-05T04:25:18.852Z,77.49
2023-05-05T04:27:51.540Z,77.75
2023-05-05T04:30:24.316Z,77.91
2023-05-05T04:32:57.082Z,77.78
2023-05-05T04:35:29.848Z,78.08
2023-05-05T04:38:03.963Z,78.27
2023-05-05T04:40:39.462Z,78.53
2023-05-05T04:43:12.234Z,78.22
2023-05-05T04:45:52.917Z,78.78
2023-05-05T04:48:25.667Z,78.78
2023-05-05T04:50:58.368Z,78.85
2023-05-05T04:53:32.503Z,78.77
2023-05-05T04:56:05.621Z,78.98
2023-05-05T04:58:38.647Z,78.83
2023-05-05T05:01:11.288Z,78.97
2023-05-05T05:03:44.097Z,79.20
2023-05-05T05:06:17.041Z,79.28
2023-05-05T05:08:51.089Z,79.31
2023-05-05T05:11:23.852Z,79.20
2023-05-05T05:13:56.538Z,79.32
2023-05-05T05:16:29.308Z,79.22
2023-05-05T05:19:02.128Z,79.29
2023-05-05T05:21:34.857Z,79.64
2023-05-05T05:24:09.224Z,79.64
2023-05-05T05:26:41.979Z,79.18
2023-05-05T05:29:14.990Z,79.49
2023-05-05T05:31:48.064Z,79.37
2023-05-05T05:34:21.028Z,79.21
2023-05-05T05:36:53.811Z,78.97
2023-05-05T05:39:28.326Z,78.94
2023-05-05T05:42:01.112Z,78.88
2023-05-05T05:44:33.939Z,78.84
2023-05-05T05:47:06.805Z,78.71
2023-05-05T05:49:40.334Z,78.76
2023-05-05T05:52:13.194Z,78.53
2023-05-05T05:54:47.302Z,78.43
2023-05-05T05:57:22.262Z,78.86
2023-05-05T05:59:55.186Z,79.56
2023-05-05T06:02:27.985Z,80.72
2023-05-05T06:05:00.768Z,81.24
2023-05-05T06:07:33.564Z,82.18
2023-05-05T06:10:25.617Z,82.95
2023-05-05T06:13:00.118Z,83.35
2023-05-05T06:15:32.862Z,83.96
2023-05-05T06:18:05.917Z,83.92
2023-05-05T06:20:38.613Z,83.20
2023-05-05T06:23:11.377Z,82.79
2023-05-05T06:25:45.795Z,82.85
2023-05-05T06:28:18.791Z,82.95
2023-05-05T06:30:51.793Z,82.53
2023-05-05T06:33:24.607Z,81.86
2023-05-05T06:35:57.334Z,81.71
2023-05-05T06:38:34.018Z,81.96
2023-05-05T06:41:08.160Z,81.74
2023-05-05T06:43:44.377Z,81.75
2023-05-05T06:46:17.440Z,81.24
2023-05-05T06:48:50.249Z,80.69
2023-05-05T06:51:23.045Z,80.86
2023-05-05T06:53:58.361Z,80.40
2023-05-05T06:56:33.000Z,80.41
2023-05-05T06:59:05.755Z,79.81
2023-05-05T07:01:38.487Z,79.98
2023-05-05T07:04:11.388Z,77.70
2023-05-05T07:06:44.105Z,78.35
2023-05-05T07:09:17.632Z,76.98
2023-05-05T07:11:51.816Z,76.39
2023-05-05T07:14:24.729Z,78.40
2023-05-05T07:16:57.714Z,78.59
2023-05-05T07:19:30.716Z,78.93
2023-05-05T07:22:03.465Z,78.34
2023-05-05T07:24:36.198Z,78.64
2023-05-05T07:27:10.732Z,79.11
2023-05-05T07:29:43.450Z,81.80
2023-05-05T07:32:16.333Z,78.57
2023-05-05T07:34:49.141Z,78.70
2023-05-05T07:37:21.991Z,79.74
2023-05-05T07:39:55.112Z,78.79
2023-05-05T07:42:29.131Z,78.14
2023-05-05T07:45:01.815Z,77.50
2023-05-05T07:47:34.697Z,77.23
2023-05-05T07:50:08.709Z,72.71
2023-05-05T07:52:46.738Z,74.56
2023-05-05T07:55:22.655Z,75.05
2023-05-05T07:57:56.791Z,72.79
2023-05-05T08:00:29.633Z,74.31
2023-05-05T08:03:02.502Z,74.70
2023-05-05T08:05:35.403Z,72.89
2023-05-05T08:08:08.384Z,74.36
2023-05-05T08:10:41.620Z,76.82
2023-05-05T08:13:16.017Z,77.49
2023-05-05T08:15:48.916Z,75.10
2023-05-05T08:18:21.682Z,72.43
2023-05-05T08:20:54.877Z,74.38
2023-05-05T08:23:27.549Z,74.23
2023-05-05T08:26:00.478Z,66.66
2023-05-05T08:28:36.399Z,70.36
2023-05-05T08:31:10.835Z,70.19
2023-05-05T08:33:43.496Z,67.48
2023-05-05T08:36:16.264Z,70.37
2023-05-05T08:38:48.994Z,73.52
2023-05-05T08:41:21.877Z,74.53
2023-05-05T08:43:57.107Z,69.66
2023-05-05T08:46:31.191Z,73.11
2023-05-05T08:49:06.599Z,71.89
2023-05-05T08:51:43.017Z,74.81
2023-05-05T08:54:17.700Z,70.05
2023-05-05T08:56:51.741Z,71.67
2023-05-05T08:59:28.504Z,69.03
2023-05-05T09:02:02.119Z,70.85
2023-05-05T09:04:35.626Z,70.27
2023-05-05T09:07:08.885Z,62.15
2023-05-05T09:09:41.677Z,66.26
2023-05-05T09:12:15.795Z,69.87
2023-05-05T09:14:50.019Z,69.95
2023-05-05T09:17:26.262Z,72.31
2023-05-05T09:20:04.284Z,72.04
2023-05-05T09:22:38.690Z,74.36
2023-05-05T09:25:12.236Z,67.63
2023-05-05T09:27:46.612Z,70.13
2023-05-05T09:30:25.739Z,70.95
2023-05-05T09:32:58.955Z,66.41
2023-05-05T09:35:48.884Z,67.58
2023-05-05T09:38:22.534Z,64.55
2023-05-05T09:40:55.789Z,67.78
2023-05-05T09:43:28.588Z,69.95
2023-05-05T09:46:08.878Z,70.87
2023-05-05T09:48:41.738Z,73.89
2023-05-05T09:51:14.532Z,75.01
2023-05-05T09:53:47.297Z,69.29
2023-05-05T09:56:20.764Z,70.98
2023-05-05T09:59:08.768Z,65.58
2023-05-05T10:01:43.884Z,67.78
2023-05-05T10:04:27.096Z,64.51
2023-05-05T10:07:00.046Z,71.17
2023-05-05T10:09:32.866Z,69.84
2023-05-05T10:12:06.043Z,71.99
2023-05-05T10:14:39.383Z,68.82
2023-05-05T10:17:15.180Z,63.05
2023-05-05T10:19:48.130Z,65.63
2023-05-05T10:22:24.004Z,67.94
2023-05-05T10:24:58.735Z,65.87
2023-05-05T10:27:35.607Z,63.57
2023-05-05T10:30:09.223Z,69.18
2023-05-05T10:35:22.743Z,69.93
2023-05-05T10:37:55.721Z,66.61
2023-05-05T10:40:28.677Z,56.24
2023-05-05T10:43:01.644Z,68.59
2023-05-05T10:45:34.624Z,63.38
2023-05-05T10:48:11.686Z,64.09
2023-05-05T10:50:49.166Z,68.73
2023-05-05T10:53:24.759Z,68.95
2023-05-05T10:56:04.292Z,68.63
2023-05-05T10:58:51.095Z,66.98
2023-05-05T11:01:32.677Z,69.22
2023-05-05T11:04:19.037Z,68.13
2023-05-05T11:07:14.312Z,70.44
2023-05-05T11:09:56.953Z,66.62
2023-05-05T11:12:29.987Z,67.45
2023-05-05T11:15:21.299Z,67.45
2023-05-05T11:17:54.356Z,68.68
2023-05-05T11:20:43.640Z,63.57
2023-05-05T11:23:23.989Z,64.53
2023-05-05T11:25:57.748Z,67.44
2023-05-05T11:28:31.700Z,69.66
2023-05-05T11:31:17.656Z,69.35
2023-05-05T11:33:50.608Z,64.66
2023-05-05T11:36:39.428Z,64.46
2023-05-05T11:39:22.226Z,66.71
2023-05-05T11:42:10.519Z,67.75
2023-05-05T11:44:43.890Z,67.32
2023-05-05T11:47:27.374Z,70.44
2023-05-05T11:50:00.589Z,68.09
2023-05-05T11:52:34.616Z,67.70
2023-05-05T11:55:09.894Z,68.63
2023-05-05T11:57:44.769Z,65.24
2023-05-05T12:00:17.861Z,69.35
2023-05-05T12:02:57.054Z,65.89
2023-05-05T12:05:29.990Z,69.27
2023-05-05T12:08:02.853Z,65.10
2023-05-05T12:10:37.051Z,64.33
2023-05-05T12:13:18.759Z,67.88
2023-05-05T12:15:52.154Z,62.70
2023-05-05T12:18:24.935Z,66.30
2023-05-05T12:20:57.651Z,65.10
2023-05-05T12:23:30.885Z,68.88
2023-05-05T12:26:05.760Z,59.76
2023-05-05T12:28:45.421Z,70.48
2023-05-05T12:31:18.200Z,69.52
2023-05-05T12:33:51.576Z,69.71
2023-05-05T12:36:24.398Z,71.01
2023-05-05T12:38:57.226Z,73.17
2023-05-05T12:41:31.407Z,73.11
2023-05-05T12:44:04.564Z,71.90
2023-05-05T12:46:46.375Z,72.03
2023-05-05T12:49:19.102Z,72.09
2023-05-05T12:51:55.857Z,72.99
2023-05-05T12:54:30.089Z,73.67
2023-05-05T12:57:12.102Z,73.29
2023-05-05T12:59:45.113Z,75.83
2023-05-05T13:02:18.521Z,74.50
2023-05-05T13:04:52.171Z,72.59
2023-05-05T13:07:25.018Z,73.22
2023-05-05T13:10:07.547Z,73.58
2023-05-05T13:12:41.952Z,72.68
2023-05-05T13:15:14.897Z,72.02
2023-05-05T13:17:47.728Z,71.52
2023-05-05T13:20:20.474Z,72.02
2023-05-05T13:22:53.276Z,71.24
2023-05-05T13:25:26.149Z,71.37
2023-05-05T13:28:00.268Z,69.33
2023-05-05T13:30:32.985Z,68.31
2023-05-05T13:33:05.927Z,68.63
2023-05-05T13:35:38.616Z,69.93
2023-05-05T13:38:11.393Z,71.04
2023-05-05T13:40:44.087Z,69.89
2023-05-05T13:43:18.268Z,66.66
2023-05-05T13:45:50.965Z,68.48
2023-05-05T13:48:23.791Z,67.28
2023-05-05T13:50:56.938Z,68.46
2023-05-05T13:53:29.699Z,69.70
2023-05-05T13:56:03.668Z,70.67
2023-05-05T13:58:38.088Z,71.00
2023-05-05T14:01:11.513Z,71.28
2023-05-05T14:03:44.281Z,71.78
2023-05-05T14:06:17.373Z,70.99
2023-05-05T14:08:50.104Z,72.21
2023-05-05T14:11:22.921Z,73.97
2023-05-05T14:13:57.084Z,72.74
2023-05-05T14:16:29.803Z,72.08
2023-05-05T14:19:02.869Z,69.02
2023-05-05T14:21:35.896Z,70.62
2023-05-05T14:24:08.835Z,71.24
2023-05-05T14:26:41.929Z,70.01
2023-05-05T14:29:16.218Z,70.20
2023-05-05T14:31:48.944Z,70.63
2023-05-05T14:34:21.660Z,68.42
2023-05-05T14:36:54.367Z,67.30
2023-05-05T14:39:27.451Z,68.13
2023-05-05T14:42:00.167Z,68.50
2023-05-05T14:44:34.334Z,69.13
2023-05-05T14:47:07.056Z,68.28
2023-05-05T14:49:41.714Z,68.02
2023-05-05T14:52:14.432Z,69.05
2023-05-05T14:54:47.504Z,68.41
2023-05-05T14:57:20.250Z,65.10
2023-05-05T14:59:54.348Z,65.71
2023-05-05T15:02:27.197Z,65.68
2023-05-05T15:05:00.101Z,65.81
2023-05-05T15:07:32.817Z,63.99
2023-05-05T15:10:05.830Z,65.25
2023-05-05T15:12:39.012Z,63.97
2023-05-05T15:15:13.377Z,61.73
2023-05-05T15:17:46.181Z,64.53
2023-05-05T15:20:19.350Z,63.24
2023-05-05T15:22:52.056Z,62.78
2023-05-05T15:25:24.897Z,61.99
2023-05-05T15:27:58.834Z,63.42
2023-05-05T15:30:33.476Z,61.11
2023-05-05T15:33:06.392Z,68.96
2023-05-05T15:35:39.456Z,62.93
2023-05-05T15:38:12.177Z,58.95
2023-05-05T15:40:47.203Z,59.78
2023-05-05T15:43:21.621Z,61.09
2023-05-05T15:45:56.237Z,56.09
2023-05-05T15:48:29.109Z,59.87
2023-05-05T15:51:01.859Z,55.98
2023-05-05T15:53:34.614Z,60.48
2023-05-05T15:56:07.936Z,60.64
2023-05-05T15:58:40.724Z,60.52
2023-05-05T16:01:14.998Z,61.85
2023-05-05T16:03:49.686Z,63.06
2023-05-05T16:06:24.762Z,64.74
2023-05-05T16:09:02.541Z,65.24
2023-05-05T16:11:45.806Z,66.97
2023-05-05T16:14:18.447Z,67.77
2023-05-05T16:16:52.645Z,66.96
2023-05-05T16:19:29.245Z,67.11
2023-05-05T16:22:03.666Z,68.24
2023-05-05T16:24:36.797Z,69.21
2023-05-05T16:27:12.784Z,69.22
2023-05-05T16:29:45.669Z,70.44
2023-05-05T16:32:27.610Z,71.62
2023-05-05T16:35:02.515Z,72.73
2023-05-05T16:37:39.911Z,74.33
2023-05-05T16:40:13.491Z,75.92
2023-05-05T16:42:46.578Z,76.84
2023-05-05T16:45:19.697Z,77.67
2023-05-05T16:47:55.425Z,78.21
2023-05-05T16:50:28.368Z,78.77
2023-05-05T16:53:01.579Z,79.05
2023-05-05T16:55:34.555Z,79.48
2023-05-05T16:58:07.450Z,79.47
2023-05-05T17:00:40.317Z,79.45
2023-05-05T17:03:14.443Z,79.63
2023-05-05T17:05:50.028Z,79.49
2023-05-05T17:08:23.466Z,79.33
2023-05-05T17:10:56.244Z,79.25
2023-05-05T17:13:29.473Z,78.74
2023-05-05T17:16:02.291Z,78.07
2023-05-05T17:18:37.270Z,78.05
2023-05-05T17:21:10.083Z,78.03
2023-05-05T17:23:42.904Z,77.82
2023-05-05T17:26:15.821Z,77.53
2023-05-05T17:28:48.561Z,77.66
2023-05-05T17:31:21.942Z,77.20
2023-05-05T17:33:56.493Z,77.09
2023-05-05T17:36:29.249Z,77.34
2023-05-05T17:39:02.058Z,77.52
2023-05-05T17:41:34.956Z,77.58
2023-05-05T17:44:07.719Z,77.51
2023-05-05T17:46:40.493Z,77.88
2023-05-05T17:49:14.926Z,78.18
2023-05-05T17:51:47.574Z,78.17
2023-05-05T17:54:20.327Z,78.18
2023-05-05T17:56:53.270Z,78.22
2023-05-05T17:59:26.163Z,78.43
2023-05-05T18:01:59.050Z,78.51
2023-05-05T18:04:33.597Z,78.67
2023-05-05T18:07:06.745Z,78.92
2023-05-05T18:09:39.794Z,78.60
2023-05-05T18:12:12.648Z,78.56
2023-05-05T18:14:45.388Z,78.39
2023-05-05T18:17:18.139Z,78.06
2023-05-05T18:19:52.423Z,77.98
2023-05-05T18:22:25.325Z,78.03
2023-05-05T18:24:59.249Z,78.19
2023-05-05T18:27:32.889Z,78.23
2023-05-05T18:30:06.275Z,78.04
2023-05-05T18:32:39.375Z,77.70
2023-05-05T18:35:13.657Z,77.65
2023-05-05T18:37:46.299Z,77.28
2023-05-05T18:40:19.112Z,77.58
2023-05-05T18:42:52.092Z,77.60
2023-05-05T18:45:25.080Z,77.67
2023-05-05T18:47:57.879Z,77.65
2023-05-05T18:50:33.448Z,77.79
2023-05-05T18:53:06.125Z,77.76
2023-05-05T18:55:38.859Z,77.99
2023-05-05T18:58:11.647Z,77.96
2023-05-05T19:00:44.400Z,78.14
2023-05-05T19:03:17.129Z,78.26
2023-05-05T19:05:51.572Z,78.40
2023-05-05T19:08:24.310Z,78.43
2023-05-05T19:10:57.139Z,78.26
2023-05-05T19:13:29.859Z,78.04
2023-05-05T19:16:02.677Z,77.96
2023-05-05T19:18:35.525Z,78.07
2023-05-05T19:21:09.677Z,78.07
2023-05-05T19:23:42.400Z,78.05
2023-05-05T19:26:15.311Z,78.08
2023-05-05T19:28:48.022Z,77.96
2023-05-05T19:31:21.892Z,77.98
2023-05-05T19:33:54.698Z,78.01
2023-05-05T19:36:29.095Z,78.04
2023-05-05T19:39:02.306Z,78.07
2023-05-05T19:41:35.670Z,78.12
2023-05-05T19:44:08.349Z,78.22
2023-05-05T19:46:41.264Z,78.03
2023-05-05T19:49:13.960Z,77.82
2023-05-05T19:51:49.860Z,77.50
2023-05-05T19:54:24.460Z,77.26
2023-05-05T19:56:58.143Z,76.69
2023-05-05T19:59:30.914Z,76.53
2023-05-05T20:02:03.728Z,76.26
2023-05-05T20:04:36.478Z,76.27
2023-05-05T20:07:11.063Z,76.01
2023-05-05T20:09:43.848Z,75.96
2023-05-05T20:12:17.681Z,75.86
2023-05-05T20:14:50.635Z,75.73
2023-05-05T20:17:23.824Z,75.66
2023-05-05T20:19:57.683Z,75.64
2023-05-05T20:22:31.897Z,75.83
2023-05-05T20:25:04.797Z,75.77
2023-05-05T20:27:38.993Z,75.96
2023-05-05T20:30:12.394Z,75.75
2023-05-05T20:32:45.296Z,75.77
2023-05-05T20:35:18.071Z,75.80
2023-05-05T20:37:52.380Z,75.98
2023-05-05T20:40:25.041Z,76.06
2023-05-05T20:42:58.290Z,75.94
2023-05-05T20:45:31.812Z,76.16
2023-05-05T20:48:05.631Z,76.40
2023-05-05T20:50:38.655Z,76.60
2023-05-05T20:53:13.889Z,76.55
2023-05-05T20:55:46.957Z,76.70
2023-05-05T20:58:19.612Z,76.61
2023-05-05T21:00:52.419Z,77.01
2023-05-05T21:03:25.246Z,77.06
2023-05-05T21:05:58.108Z,76.97
2023-05-05T21:08:32.392Z,77.13
2023-05-05T21:11:09.342Z,77.26
2023-05-05T21:13:42.062Z,77.46
2023-05-05T21:16:15.028Z,77.38
2023-05-05T21:18:47.842Z,77.29
2023-05-05T21:21:20.632Z,77.46
2023-05-05T21:23:55.337Z,77.15
2023-05-05T21:26:28.125Z,77.40
2023-05-05T21:29:00.823Z,77.21
2023-05-05T21:31:33.667Z,77.33
2023-05-05T21:34:06.669Z,77.24
2023-05-05T21:36:39.496Z,77.10
2023-05-05T21:39:13.604Z,77.45
2023-05-05T21:41:46.297Z,77.50
2023-05-05T21:44:20.514Z,77.10
2023-05-05T21:46:53.631Z,77.33
2023-05-05T21:49:26.545Z,77.34
2023-05-05T21:51:59.412Z,77.56
2023-05-05T21:54:33.531Z,77.95
2023-05-05T21:57:06.396Z,78.18
2023-05-05T21:59:39.225Z,78.51
2023-05-05T22:02:12.015Z,78.66
2023-05-05T22:04:48.529Z,78.87
2023-05-05T22:07:21.266Z,79.25
2023-05-05T22:09:55.559Z,79.15
2023-05-05T22:12:28.460Z,79.47
2023-05-05T22:15:01.602Z,79.14
2023-05-05T22:17:34.377Z,79.51
2023-05-05T22:20:09.165Z,79.48
2023-05-05T22:22:42.141Z,79.64
2023-05-05T22:25:16.333Z,79.43
2023-05-05T22:27:49.144Z,79.38
2023-05-05T22:30:22.130Z,79.16
2023-05-05T22:32:55.099Z,78.80
2023-05-05T22:35:28.368Z,78.89
2023-05-05T22:38:01.550Z,78.71
2023-05-05T22:40:35.962Z,78.39
2023-05-05T22:43:08.681Z,78.24
2023-05-05T22:45:42.602Z,78.12
2023-05-05T22:48:15.298Z,78.46
2023-05-05T22:50:48.118Z,78.11
2023-05-05T22:53:20.904Z,78.45
2023-05-05T22:55:55.063Z,78.46
2023-05-05T22:58:28.332Z,78.19
2023-05-05T23:01:01.111Z,78.32
2023-05-05T23:03:34.082Z,78.28
2023-05-05T23:06:07.474Z,78.50
2023-05-05T23:08:41.752Z,78.18
2023-05-05T23:11:16.249Z,78.49
2023-05-05T23:13:48.958Z,78.31
2023-05-05T23:16:21.777Z,78.41
2023-05-05T23:18:56.078Z,78.43
2023-05-05T23:21:29.365Z,78.83
2023-05-05T23:24:05.061Z,78.54
2023-05-05T23:26:39.357Z,78.75
2023-05-05T23:29:12.751Z,78.61
2023-05-05T23:31:46.149Z,78.66
2023-05-05T23:34:18.888Z,78.84
2023-05-05T23:36:51.867Z,78.75
2023-05-05T23:39:24.697Z,78.78
2023-05-05T23:41:58.960Z,78.64
2023-05-05T23:44:31.591Z,78.75
2023-05-05T23:47:04.592Z,78.71
2023-05-05T23:49:37.324Z,78.79
2023-05-05T23:52:10.230Z,79.40
2023-05-05T23:54:42.936Z,79.08
2023-05-05T23:57:17.432Z,79.40
2023-05-05T23:59:50.547Z,79.11
